Time;durP1;ratioP1;P1;durP2;ratioP2;P2;SDS_P1;SDS_P2;PMS_P1;PMS_P2;Temp;Humidity;BMP_temperature;BMP_pressure;BME280_temperature;BME280_humidity;BME280_pressure;Samples;Min_cycle;Max_cycle;Signal;HPM_P1;HPM_P2
2023/02/18 00:02:07;;;;;;;1.02;0.93;;;11.10;99.90;;;;;;5048597;28;20201;-72
2023/02/18 00:04:34;;;;;;;1.02;0.93;;;11.10;99.90;;;;;;5049718;28;20424;-71
2023/02/18 00:07:01;;;;;;;1.50;0.95;;;11.10;99.90;;;;;;5054822;28;20216;-71
2023/02/18 00:09:27;;;;;;;1.58;1.40;;;11.10;99.90;;;;;;5049388;28;20251;-71
2023/02/18 00:11:54;;;;;;;1.00;0.90;;;11.10;99.90;;;;;;5048474;28;20200;-72
2023/02/18 00:14:21;;;;;;;1.38;0.93;;;11.00;99.90;;;;;;5049643;28;20299;-71
2023/02/18 00:16:48;;;;;;;1.20;1.10;;;11.00;99.90;;;;;;5048146;28;20303;-70
2023/02/18 00:19:19;;;;;;;1.13;1.00;;;11.00;99.90;;;;;;5049649;28;20573;-71
2023/02/18 00:21:46;;;;;;;1.42;1.33;;;11.00;99.90;;;;;;5048913;28;20208;-72
2023/02/18 00:24:15;;;;;;;1.20;1.00;;;10.90;99.90;;;;;;5048490;28;20267;-72
2023/02/18 00:26:42;;;;;;;1.33;1.10;;;10.90;99.90;;;;;;5051767;28;20216;-70
2023/02/18 00:29:09;;;;;;;1.35;0.90;;;10.90;99.90;;;;;;5048623;28;20202;-73
2023/02/18 00:31:39;;;;;;;1.10;0.90;;;10.90;99.90;;;;;;5048471;28;20573;-72
2023/02/18 00:34:06;;;;;;;1.40;1.30;;;10.80;99.90;;;;;;5045589;28;20208;-72
2023/02/18 00:36:35;;;;;;;2.03;1.00;;;10.80;99.90;;;;;;5048713;28;20235;-72
2023/02/18 00:39:04;;;;;;;1.38;1.20;;;10.80;99.90;;;;;;5049427;28;20649;-72
2023/02/18 00:41:31;;;;;;;1.15;0.90;;;10.80;99.90;;;;;;5048921;28;20205;-72
2023/02/18 00:43:58;;;;;;;1.30;1.00;;;10.80;99.90;;;;;;5049668;28;20201;-72
2023/02/18 00:46:26;;;;;;;1.45;0.95;;;10.80;99.90;;;;;;5051053;28;20232;-72
2023/02/18 00:48:53;;;;;;;1.10;0.82;;;10.80;99.90;;;;;;5049722;28;20630;-72
2023/02/18 00:51:21;;;;;;;1.20;1.10;;;10.80;99.90;;;;;;5048560;28;20527;-71
2023/02/18 00:53:49;;;;;;;2.38;1.08;;;10.80;99.90;;;;;;5048993;28;20215;-71
2023/02/18 00:56:16;;;;;;;1.00;0.90;;;10.80;99.90;;;;;;5048274;28;20735;-71
2023/02/18 00:58:42;;;;;;;1.60;1.20;;;10.80;99.90;;;;;;5049769;28;20220;-72
2023/02/18 01:01:10;;;;;;;1.33;1.00;;;10.80;99.90;;;;;;5049827;28;20208;-71
2023/02/18 01:03:38;;;;;;;1.05;0.95;;;10.80;99.90;;;;;;5050204;28;20251;-72
2023/02/18 01:06:06;;;;;;;1.20;1.02;;;10.90;99.90;;;;;;5050007;28;20197;-71
2023/02/18 01:08:34;;;;;;;1.33;1.00;;;11.00;99.90;;;;;;5052926;28;20197;-71
2023/02/18 01:11:02;;;;;;;1.15;1.05;;;10.90;99.90;;;;;;5053826;28;20204;-71
2023/02/18 01:13:30;;;;;;;2.65;1.05;;;10.90;99.90;;;;;;5054344;28;20668;-71
2023/02/18 01:15:57;;;;;;;1.48;1.38;;;10.90;99.90;;;;;;5053533;28;20209;-72
2023/02/18 01:18:25;;;;;;;1.63;1.35;;;11.00;99.90;;;;;;5054299;28;20693;-72
2023/02/18 01:20:52;;;;;;;1.10;0.98;;;10.90;99.90;;;;;;5053949;28;20201;-72
2023/02/18 01:23:19;;;;;;;1.40;1.30;;;10.90;99.90;;;;;;5053827;28;20216;-72
2023/02/18 01:25:46;;;;;;;1.27;1.17;;;10.80;99.90;;;;;;5053525;28;20208;-71
2023/02/18 01:28:15;;;;;;;1.48;1.30;;;10.80;99.90;;;;;;5053581;28;20228;-72
2023/02/18 01:30:42;;;;;;;1.45;1.08;;;10.70;99.90;;;;;;5054098;28;20244;-71
2023/02/18 01:33:09;;;;;;;1.30;1.20;;;10.70;99.90;;;;;;5053408;28;20672;-71
2023/02/18 01:35:38;;;;;;;1.38;1.10;;;10.60;99.90;;;;;;5053183;28;20208;-71
2023/02/18 01:38:05;;;;;;;1.40;1.08;;;10.60;99.90;;;;;;5052905;28;20228;-71
2023/02/18 01:40:31;;;;;;;1.38;1.27;;;10.60;99.90;;;;;;5053733;28;20211;-71
2023/02/18 01:42:58;;;;;;;1.15;1.05;;;10.60;99.90;;;;;;5053606;28;20198;-71
2023/02/18 01:45:50;;;;;;;1.40;1.30;;;10.60;99.90;;;;;;5052562;28;20209;-72
2023/02/18 01:48:21;;;;;;;1.30;1.00;;;10.60;99.90;;;;;;5053489;28;20650;-72
2023/02/18 01:50:50;;;;;;;1.85;1.10;;;10.50;99.90;;;;;;5053181;28;20208;-71
2023/02/18 01:53:28;;;;;;;1.10;1.00;;;10.50;99.90;;;;;;5053243;28;20201;-71
2023/02/18 01:55:56;;;;;;;2.53;1.55;;;10.50;99.90;;;;;;5052666;28;20207;-71
2023/02/18 01:58:23;;;;;;;1.50;1.40;;;10.60;99.90;;;;;;5053003;28;20220;-71
2023/02/18 02:00:52;;;;;;;1.55;1.30;;;10.60;99.90;;;;;;5053286;28;20209;-72
2023/02/18 02:03:18;;;;;;;1.90;1.60;;;10.60;99.90;;;;;;5052631;28;20279;-71
2023/02/18 02:05:45;;;;;;;1.92;1.55;;;10.60;99.90;;;;;;5052720;28;20201;-71
2023/02/18 02:08:12;;;;;;;1.33;1.15;;;10.60;99.90;;;;;;5052436;28;20217;-71
2023/02/18 02:10:55;;;;;;;1.48;1.38;;;10.60;99.90;;;;;;5053209;28;20220;-72
2023/02/18 02:13:33;;;;;;;1.52;1.42;;;10.50;99.90;;;;;;5052340;28;20197;-71
2023/02/18 02:16:06;;;;;;;2.00;1.55;;;10.50;99.90;;;;;;5044481;28;20208;-72
2023/02/18 02:18:47;;;;;;;1.42;1.33;;;10.50;99.90;;;;;;5052927;28;20225;-71
2023/02/18 02:21:42;;;;;;;1.90;1.48;;;10.40;99.90;;;;;;5052271;28;20700;-71
2023/02/18 02:24:53;;;;;;;1.45;1.35;;;10.50;99.90;;;;;;5051754;28;20208;-71
2023/02/18 02:27:26;;;;;;;1.50;1.40;;;10.40;99.90;;;;;;5042951;28;20228;-71
2023/02/18 02:30:25;;;;;;;1.95;1.45;;;10.40;99.90;;;;;;5052795;28;20209;-71
2023/02/18 02:33:19;;;;;;;1.42;1.33;;;10.30;99.90;;;;;;5052507;28;20205;-71
2023/02/18 02:35:54;;;;;;;2.47;1.90;;;10.30;99.90;;;;;;5052199;28;20205;-71
2023/02/18 02:38:29;;;;;;;1.75;1.45;;;10.20;99.90;;;;;;5052384;28;20228;-71
2023/02/18 02:41:08;;;;;;;1.65;1.38;;;10.20;99.90;;;;;;5052587;28;20204;-71
2023/02/18 02:43:45;;;;;;;4.25;1.17;;;10.20;99.90;;;;;;5052523;28;20268;-71
2023/02/18 02:46:17;;;;;;;1.98;1.58;;;10.20;99.90;;;;;;5051837;28;20262;-71
2023/02/18 02:48:49;;;;;;;1.63;1.52;;;10.20;99.90;;;;;;5052862;28;20193;-71
2023/02/18 02:51:23;;;;;;;1.60;1.25;;;10.20;99.90;;;;;;5052134;28;20216;-71
2023/02/18 02:53:50;;;;;;;1.20;1.05;;;10.20;99.90;;;;;;5052350;28;20209;-72
2023/02/18 02:56:20;;;;;;;1.30;1.20;;;10.30;99.90;;;;;;5051345;28;20581;-71
2023/02/18 02:58:56;;;;;;;1.30;1.20;;;10.30;99.90;;;;;;5052200;28;20291;-71
2023/02/18 03:01:34;;;;;;;1.40;1.30;;;10.30;99.90;;;;;;5052403;28;20211;-71
2023/02/18 03:04:22;;;;;;;1.50;1.40;;;10.40;99.90;;;;;;5052363;28;20205;-72
2023/02/18 03:07:07;;;;;;;1.48;1.38;;;10.40;99.90;;;;;;5048055;28;20227;-72
2023/02/18 03:09:44;;;;;;;1.50;1.20;;;10.30;99.90;;;;;;5052354;28;20579;-72
2023/02/18 03:12:18;;;;;;;1.40;1.30;;;10.30;99.90;;;;;;5051598;28;20201;-72
2023/02/18 03:14:50;;;;;;;1.40;1.25;;;10.30;99.90;;;;;;5052002;28;20221;-72
2023/02/18 03:17:24;;;;;;;1.60;1.50;;;10.30;99.90;;;;;;5051560;28;20221;-72
2023/02/18 03:19:55;;;;;;;1.48;1.38;;;10.20;99.90;;;;;;5051819;28;20692;-72
2023/02/18 03:22:29;;;;;;;1.10;1.00;;;10.20;99.90;;;;;;5051682;28;20216;-72
2023/02/18 03:24:57;;;;;;;2.45;1.13;;;10.20;99.90;;;;;;5051057;28;20572;-72
2023/02/18 03:27:29;;;;;;;1.63;1.10;;;10.10;99.90;;;;;;5051552;28;20631;-72
2023/02/18 03:29:59;;;;;;;1.23;1.13;;;10.00;99.90;;;;;;5051456;28;20639;-72
2023/02/18 03:32:27;;;;;;;1.30;1.20;;;9.90;99.90;;;;;;5051644;28;20633;-72
2023/02/18 03:34:57;;;;;;;1.42;0.95;;;9.80;99.90;;;;;;5050945;28;20691;-71
2023/02/18 03:37:26;;;;;;;1.20;1.10;;;9.70;99.90;;;;;;5051154;28;20586;-71
2023/02/18 03:39:56;;;;;;;1.30;1.20;;;9.70;99.90;;;;;;5051437;28;20327;-72
2023/02/18 03:42:26;;;;;;;1.33;1.20;;;9.60;99.90;;;;;;5050952;28;20212;-71
2023/02/18 03:44:52;;;;;;;1.40;1.02;;;9.60;99.90;;;;;;5050954;28;20236;-72
2023/02/18 03:47:19;;;;;;;1.00;0.90;;;9.60;99.90;;;;;;5050664;28;20600;-72
2023/02/18 03:49:46;;;;;;;1.15;1.05;;;9.60;99.90;;;;;;5051255;28;20197;-71
2023/02/18 03:52:13;;;;;;;2.50;1.40;;;9.60;99.90;;;;;;5051035;28;20205;-71
2023/02/18 03:54:41;;;;;;;1.50;1.40;;;9.60;99.90;;;;;;5050971;28;20319;-71
2023/02/18 03:57:08;;;;;;;1.70;1.60;;;9.60;99.90;;;;;;5050357;28;20232;-71
2023/02/18 03:59:35;;;;;;;3.15;1.30;;;9.60;99.90;;;;;;5050861;28;20253;-72
2023/02/18 04:02:02;;;;;;;1.58;1.48;;;9.60;99.90;;;;;;5050944;28;20201;-71
2023/02/18 04:04:30;;;;;;;1.40;1.25;;;9.60;99.90;;;;;;5050866;28;20232;-71
2023/02/18 04:06:56;;;;;;;2.00;1.55;;;9.50;99.90;;;;;;5050614;28;20229;-71
2023/02/18 04:09:23;;;;;;;1.17;0.98;;;9.50;99.90;;;;;;5050730;28;20209;-71
2023/02/18 04:11:51;;;;;;;1.30;1.17;;;9.50;99.90;;;;;;5050624;28;20201;-71
2023/02/18 04:14:18;;;;;;;1.30;1.10;;;9.40;99.90;;;;;;5050995;28;20205;-71
2023/02/18 04:16:44;;;;;;;1.48;1.38;;;9.50;99.90;;;;;;5049954;28;20614;-71
2023/02/18 04:19:11;;;;;;;1.50;1.40;;;9.40;99.90;;;;;;5050582;28;20272;-72
2023/02/18 04:21:38;;;;;;;1.30;1.20;;;9.40;99.90;;;;;;5050854;28;20575;-72
2023/02/18 04:24:05;;;;;;;1.38;1.27;;;9.40;99.90;;;;;;5050848;28;20215;-72
2023/02/18 04:26:32;;;;;;;2.00;1.13;;;9.30;99.90;;;;;;5050317;28;20221;-72
2023/02/18 04:29:00;;;;;;;1.45;1.35;;;9.20;99.90;;;;;;5050373;28;20207;-71
2023/02/18 04:31:26;;;;;;;1.48;1.20;;;9.10;99.90;;;;;;5050841;28;20259;-72
2023/02/18 04:33:53;;;;;;;1.55;1.45;;;9.10;99.90;;;;;;5050847;28;20201;-72
2023/02/18 04:36:20;;;;;;;2.08;1.02;;;9.10;99.90;;;;;;5050100;28;20712;-72
2023/02/18 04:38:46;;;;;;;1.42;1.20;;;9.00;99.90;;;;;;5050444;28;20785;-72
2023/02/18 04:41:13;;;;;;;1.65;1.10;;;9.00;99.90;;;;;;5050081;28;20209;-72
2023/02/18 04:43:40;;;;;;;1.42;1.25;;;8.90;99.90;;;;;;5050146;28;20197;-71
2023/02/18 04:46:08;;;;;;;1.20;1.02;;;8.80;99.90;;;;;;5049563;28;20201;-72
2023/02/18 04:48:35;;;;;;;1.35;1.25;;;8.70;99.90;;;;;;5050744;28;20255;-72
2023/02/18 04:51:01;;;;;;;1.83;1.08;;;8.70;99.90;;;;;;5049947;28;20201;-72
2023/02/18 04:53:28;;;;;;;1.20;1.10;;;8.70;99.90;;;;;;5050479;28;20664;-72
2023/02/18 04:55:55;;;;;;;1.35;1.25;;;8.70;99.90;;;;;;5050088;28;20201;-72
2023/02/18 04:58:22;;;;;;;1.48;1.38;;;8.70;99.90;;;;;;5049706;28;20608;-72
2023/02/18 05:00:48;;;;;;;1.83;1.73;;;8.60;99.90;;;;;;5050478;28;20205;-72
2023/02/18 05:03:17;;;;;;;1.75;1.50;;;8.60;99.90;;;;;;5049739;28;20695;-72
2023/02/18 05:05:44;;;;;;;1.48;1.30;;;8.60;99.90;;;;;;5050213;28;20633;-72
2023/02/18 05:08:11;;;;;;;1.98;1.52;;;8.70;99.90;;;;;;5050401;28;20692;-71
2023/02/18 05:10:38;;;;;;;1.50;1.33;;;8.70;99.90;;;;;;5050092;28;20197;-72
2023/02/18 05:13:05;;;;;;;1.50;1.27;;;8.80;99.90;;;;;;5049974;28;20201;-72
2023/02/18 05:15:32;;;;;;;2.08;1.55;;;8.90;99.90;;;;;;5049501;28;20208;-72
2023/02/18 05:17:59;;;;;;;2.47;1.25;;;9.00;99.90;;;;;;5050033;28;20723;-70
2023/02/18 05:20:27;;;;;;;1.40;1.05;;;9.00;99.90;;;;;;5049838;28;20205;-72
2023/02/18 05:22:54;;;;;;;1.55;1.42;;;9.00;99.90;;;;;;5050234;28;20209;-72
2023/02/18 05:25:20;;;;;;;1.35;1.10;;;9.00;99.90;;;;;;5049523;28;20201;-72
2023/02/18 05:27:47;;;;;;;1.70;1.40;;;9.10;99.90;;;;;;5049828;28;20221;-71
2023/02/18 05:30:15;;;;;;;1.90;1.20;;;9.10;99.90;;;;;;5050034;28;20201;-71
2023/02/18 05:32:41;;;;;;;1.48;1.35;;;9.20;99.90;;;;;;5049785;28;20212;-72
2023/02/18 05:35:08;;;;;;;1.35;1.02;;;9.30;99.90;;;;;;5049559;28;20772;-71
2023/02/18 05:37:37;;;;;;;1.50;1.13;;;9.30;99.90;;;;;;5049794;28;20221;-71
2023/02/18 05:40:04;;;;;;;2.20;1.25;;;9.30;99.90;;;;;;5049710;28;20221;-71
2023/02/18 05:42:31;;;;;;;1.27;1.17;;;9.40;99.90;;;;;;5050040;28;20209;-71
2023/02/18 05:44:58;;;;;;;1.67;1.58;;;9.40;99.90;;;;;;5048916;28;20201;-72
2023/02/18 05:47:25;;;;;;;1.17;1.08;;;9.50;99.90;;;;;;5049806;28;20232;-72
2023/02/18 05:49:52;;;;;;;1.40;1.20;;;9.50;99.90;;;;;;5049114;28;20279;-71
2023/02/18 05:52:18;;;;;;;1.73;1.20;;;9.50;99.90;;;;;;5049270;28;20208;-71
2023/02/18 05:54:46;;;;;;;1.50;1.40;;;9.50;99.90;;;;;;5050651;28;20208;-71
2023/02/18 05:57:14;;;;;;;1.45;1.20;;;9.50;99.90;;;;;;5052838;28;20240;-71
2023/02/18 05:59:40;;;;;;;1.80;1.38;;;9.50;99.90;;;;;;5053251;28;20252;-71
2023/02/18 06:02:07;;;;;;;1.10;1.00;;;9.50;99.90;;;;;;5052826;28;20197;-71
2023/02/18 06:04:34;;;;;;;1.35;1.25;;;9.50;99.90;;;;;;5053313;28;20208;-71
2023/02/18 06:07:01;;;;;;;1.13;1.02;;;9.50;99.90;;;;;;5052305;28;20217;-72
2023/02/18 06:09:27;;;;;;;1.40;1.30;;;9.50;99.90;;;;;;5053469;28;20616;-72
2023/02/18 06:11:55;;;;;;;1.20;1.10;;;9.50;99.90;;;;;;5052933;28;20208;-71
2023/02/18 06:14:22;;;;;;;1.30;1.10;;;9.50;99.90;;;;;;5052664;28;20208;-71
2023/02/18 06:16:49;;;;;;;1.25;1.15;;;9.50;99.90;;;;;;5052850;28;20225;-72
2023/02/18 06:19:15;;;;;;;1.50;1.40;;;9.50;99.90;;;;;;5052836;28;20217;-71
2023/02/18 06:21:42;;;;;;;1.10;1.00;;;9.50;99.90;;;;;;5053116;28;20668;-72
2023/02/18 06:24:09;;;;;;;1.50;1.40;;;9.50;99.90;;;;;;5052498;28;20209;-72
2023/02/18 06:26:35;;;;;;;2.10;1.33;;;9.50;99.90;;;;;;5052265;28;20228;-72
2023/02/18 06:29:04;;;;;;;1.38;1.27;;;9.50;99.90;;;;;;5052568;28;20197;-72
2023/02/18 06:31:30;;;;;;;2.17;1.45;;;9.60;99.90;;;;;;5052613;28;20673;-71
2023/02/18 06:33:57;;;;;;;1.40;1.20;;;9.60;99.90;;;;;;5052972;28;20204;-71
2023/02/18 06:36:24;;;;;;;1.80;1.40;;;9.60;99.90;;;;;;5051676;28;20229;-72
2023/02/18 06:38:51;;;;;;;1.35;1.25;;;9.70;99.90;;;;;;5052644;28;20244;-71
2023/02/18 06:41:17;;;;;;;1.25;1.13;;;9.80;99.90;;;;;;5052037;28;20270;-71
2023/02/18 06:43:44;;;;;;;2.35;1.40;;;9.90;99.90;;;;;;5052624;28;20232;-72
2023/02/18 06:46:12;;;;;;;1.27;1.17;;;9.90;99.90;;;;;;5050663;28;20201;-72
2023/02/18 06:48:39;;;;;;;1.55;1.42;;;10.00;99.90;;;;;;5050217;28;20205;-72
2023/02/18 06:51:06;;;;;;;1.42;1.30;;;10.00;99.90;;;;;;5050155;28;20205;-72
2023/02/18 06:53:32;;;;;;;1.98;1.50;;;10.00;99.90;;;;;;5050749;28;20208;-73
2023/02/18 06:55:59;;;;;;;1.80;1.40;;;10.00;99.90;;;;;;5049957;28;20216;-72
2023/02/18 06:58:26;;;;;;;1.30;1.15;;;10.10;99.90;;;;;;5051880;28;20267;-72
2023/02/18 07:00:53;;;;;;;1.25;1.15;;;10.10;99.90;;;;;;5052405;28;20204;-72
2023/02/18 07:03:21;;;;;;;2.28;1.65;;;10.10;99.90;;;;;;5051970;28;20224;-72
2023/02/18 07:05:47;;;;;;;2.20;1.48;;;10.20;99.90;;;;;;5051035;28;20580;-72
2023/02/18 07:08:14;;;;;;;1.50;1.30;;;10.20;99.90;;;;;;5051729;28;20248;-71
2023/02/18 07:10:41;;;;;;;1.40;1.30;;;10.20;99.90;;;;;;5051722;28;20201;-71
2023/02/18 07:13:08;;;;;;;1.60;1.50;;;10.30;99.90;;;;;;5052129;28;20209;-72
2023/02/18 07:15:34;;;;;;;1.60;1.33;;;10.30;99.90;;;;;;5051318;28;20209;-72
2023/02/18 07:18:01;;;;;;;2.28;1.55;;;10.30;99.90;;;;;;5052048;28;20279;-72
2023/02/18 07:20:29;;;;;;;2.03;1.30;;;10.40;99.90;;;;;;5051461;28;20220;-72
2023/02/18 07:22:56;;;;;;;1.80;1.70;;;10.40;99.90;;;;;;5052090;28;20208;-72
2023/02/18 07:25:23;;;;;;;1.33;1.23;;;10.50;99.90;;;;;;5051295;28;20197;-72
2023/02/18 07:27:50;;;;;;;2.60;1.77;;;10.50;99.90;;;;;;5051784;28;20229;-71
2023/02/18 07:30:17;;;;;;;1.83;1.73;;;10.40;99.90;;;;;;5051558;28;20572;-72
2023/02/18 07:32:44;;;;;;;1.48;1.30;;;10.40;99.90;;;;;;5051649;28;20205;-71
2023/02/18 07:35:12;;;;;;;1.27;1.17;;;10.50;99.90;;;;;;5050931;28;20224;-71
2023/02/18 07:37:40;;;;;;;1.10;1.00;;;10.50;99.90;;;;;;5051471;28;20718;-72
2023/02/18 07:40:10;;;;;;;1.63;1.52;;;10.50;99.90;;;;;;5051470;28;20224;-72
2023/02/18 07:42:36;;;;;;;1.52;1.42;;;10.50;99.90;;;;;;5051541;28;20212;-71
2023/02/18 07:45:03;;;;;;;1.42;1.33;;;10.50;99.90;;;;;;5050909;28;20205;-72
2023/02/18 07:47:30;;;;;;;1.40;1.10;;;10.60;99.90;;;;;;5051479;28;20221;-72
2023/02/18 07:49:57;;;;;;;1.58;1.10;;;10.60;99.90;;;;;;5051256;28;20580;-72
2023/02/18 07:52:23;;;;;;;1.40;1.30;;;10.70;99.90;;;;;;5051404;28;20197;-72
2023/02/18 07:54:52;;;;;;;1.75;1.30;;;10.70;99.90;;;;;;5050705;28;20755;-72
2023/02/18 07:57:18;;;;;;;1.95;1.58;;;10.70;99.90;;;;;;5051152;28;20241;-71
2023/02/18 07:59:45;;;;;;;1.77;1.50;;;10.70;99.90;;;;;;5051071;28;20221;-71
2023/02/18 08:02:17;;;;;;;1.60;1.30;;;10.80;99.90;;;;;;5051217;28;20205;-71
2023/02/18 08:04:44;;;;;;;1.40;1.25;;;10.80;99.90;;;;;;5050920;28;20205;-72
2023/02/18 08:07:14;;;;;;;1.75;1.38;;;10.90;99.90;;;;;;5050682;28;20222;-72
2023/02/18 08:09:41;;;;;;;1.52;1.38;;;10.90;99.90;;;;;;5051230;28;20205;-72
2023/02/18 08:12:09;;;;;;;2.00;1.70;;;10.90;99.90;;;;;;5050543;28;20201;-72
2023/02/18 08:14:36;;;;;;;1.85;1.27;;;10.90;99.90;;;;;;5050930;28;20201;-71
2023/02/18 08:17:02;;;;;;;1.75;1.40;;;11.00;99.90;;;;;;5049783;28;20229;-72
2023/02/18 08:19:29;;;;;;;2.40;1.73;;;11.00;99.90;;;;;;5051289;28;20636;-71
2023/02/18 08:21:56;;;;;;;1.50;1.40;;;11.00;99.90;;;;;;5050975;28;20208;-72
2023/02/18 08:24:22;;;;;;;1.30;1.15;;;11.00;99.90;;;;;;5050839;28;20572;-72
2023/02/18 08:26:49;;;;;;;1.45;1.35;;;11.00;99.90;;;;;;5050183;28;20232;-71
2023/02/18 08:29:17;;;;;;;1.30;1.20;;;11.00;99.90;;;;;;5050789;28;20209;-71
2023/02/18 08:31:44;;;;;;;1.58;1.48;;;11.10;99.90;;;;;;5046083;28;20208;-72
2023/02/18 08:34:10;;;;;;;2.10;1.70;;;11.10;99.90;;;;;;5049846;28;20213;-72
2023/02/18 08:36:37;;;;;;;2.00;1.40;;;11.10;99.90;;;;;;5050204;28;20220;-72
2023/02/18 08:39:05;;;;;;;2.22;1.40;;;11.10;99.90;;;;;;5050339;28;20197;-72
2023/02/18 08:41:31;;;;;;;2.78;1.30;;;11.20;99.90;;;;;;5053614;28;20197;-72
2023/02/18 08:43:58;;;;;;;2.95;1.30;;;11.10;99.90;;;;;;5050404;28;20201;-71
2023/02/18 08:46:26;;;;;;;1.98;1.40;;;11.20;99.90;;;;;;5048003;28;20780;-71
2023/02/18 08:48:53;;;;;;;1.83;1.30;;;11.30;99.90;;;;;;5050527;28;20577;-71
2023/02/18 08:51:22;;;;;;;1.40;1.30;;;11.30;99.90;;;;;;5063023;28;20196;-72
2023/02/18 08:53:49;;;;;;;2.13;1.52;;;11.40;99.90;;;;;;5070297;28;20250;-72
2023/02/18 08:56:17;;;;;;;1.80;1.55;;;11.50;99.90;;;;;;5056855;28;20279;-71
2023/02/18 08:58:44;;;;;;;1.50;1.17;;;11.50;99.90;;;;;;5050381;28;20213;-71
2023/02/18 09:01:12;;;;;;;1.30;1.20;;;11.60;99.90;;;;;;5060373;28;20287;-71
2023/02/18 09:03:40;;;;;;;1.30;1.20;;;11.70;99.90;;;;;;5070818;28;20234;-72
2023/02/18 09:06:07;;;;;;;1.40;1.30;;;11.70;99.90;;;;;;5069492;28;20192;-71
2023/02/18 09:08:34;;;;;;;1.35;1.02;;;11.70;99.90;;;;;;5070078;28;20211;-71
2023/02/18 09:11:04;;;;;;;1.42;1.08;;;11.70;99.90;;;;;;5054593;28;20574;-71
2023/02/18 09:13:31;;;;;;;1.20;1.10;;;11.80;99.90;;;;;;5050061;28;20197;-71
2023/02/18 09:16:00;;;;;;;3.38;1.38;;;11.90;99.90;;;;;;5048959;28;20288;-71
2023/02/18 09:18:27;;;;;;;2.08;1.52;;;11.90;99.90;;;;;;5050041;28;20610;-71
2023/02/18 09:20:59;;;;;;;1.20;1.10;;;11.90;99.90;;;;;;5049821;28;20243;-72
2023/02/18 09:23:26;;;;;;;1.20;1.10;;;12.00;99.90;;;;;;5049673;28;20675;-71
2023/02/18 09:25:53;;;;;;;1.35;1.20;;;12.00;99.90;;;;;;5049217;28;20452;-72
2023/02/18 09:28:20;;;;;;;1.33;1.10;;;12.10;99.90;;;;;;5050247;28;20228;-72
2023/02/18 09:30:47;;;;;;;1.33;1.17;;;12.10;99.90;;;;;;5053241;28;20197;-72
2023/02/18 09:33:15;;;;;;;1.55;1.10;;;12.20;99.90;;;;;;5053357;28;20291;-72
2023/02/18 09:35:42;;;;;;;1.23;1.00;;;12.20;99.90;;;;;;5052795;28;20197;-72
2023/02/18 09:38:12;;;;;;;1.38;1.17;;;12.20;99.90;;;;;;5053023;28;20221;-72
2023/02/18 09:40:43;;;;;;;1.55;1.40;;;12.20;99.90;;;;;;5053582;28;20305;-71
2023/02/18 09:43:19;;;;;;;1.35;1.23;;;12.20;99.90;;;;;;5052794;28;20339;-71
2023/02/18 09:45:46;;;;;;;1.75;1.27;;;12.20;99.90;;;;;;5052940;28;20193;-71
2023/02/18 09:48:13;;;;;;;3.40;1.42;;;12.30;99.90;;;;;;5052899;28;20233;-71
2023/02/18 09:50:39;;;;;;;1.45;1.10;;;12.30;99.90;;;;;;5057436;28;20283;-71
2023/02/18 09:53:06;;;;;;;1.65;1.50;;;12.30;99.90;;;;;;5072780;28;20208;-70
2023/02/18 09:55:38;;;;;;;1.13;1.00;;;12.30;99.90;;;;;;5072895;28;20204;-70
2023/02/18 09:58:11;;;;;;;1.40;1.30;;;12.30;99.90;;;;;;5073081;28;20239;-70
2023/02/18 10:00:41;;;;;;;1.50;1.30;;;12.30;99.90;;;;;;5072069;28;20311;-70
2023/02/18 10:03:12;;;;;;;1.10;1.00;;;12.30;99.90;;;;;;5073147;28;20211;-70
2023/02/18 10:05:49;;;;;;;1.30;1.20;;;12.40;99.90;;;;;;5072677;28;20537;-70
2023/02/18 10:08:21;;;;;;;1.50;1.23;;;12.40;99.90;;;;;;5072846;28;20227;-71
2023/02/18 10:10:49;;;;;;;1.15;0.90;;;12.50;99.90;;;;;;5072620;28;20197;-70
2023/02/18 10:13:19;;;;;;;1.45;0.80;;;12.50;99.90;;;;;;5072883;28;20673;-70
2023/02/18 10:15:46;;;;;;;1.00;0.90;;;12.60;99.90;;;;;;5068983;28;20198;-70
2023/02/18 10:18:32;;;;;;;3.08;1.25;;;12.60;99.90;;;;;;5052379;28;20221;-70
2023/02/18 10:21:05;;;;;;;1.43;1.10;;;12.60;99.90;;;;;;5052500;28;20238;-70
2023/02/18 10:23:35;;;;;;;1.10;1.00;;;12.70;99.90;;;;;;5052176;28;20463;-70
2023/02/18 10:26:07;;;;;;;1.43;1.20;;;12.80;99.90;;;;;;5052050;28;20460;-69
2023/02/18 10:28:36;;;;;;;2.83;1.20;;;12.90;99.90;;;;;;5052172;28;20467;-70
2023/02/18 10:31:09;;;;;;;1.60;1.10;;;13.00;99.90;;;;;;5052349;28;20460;-71
2023/02/18 10:33:42;;;;;;;1.43;0.93;;;13.10;99.90;;;;;;5052848;28;20219;-70
2023/02/18 10:36:23;;;;;;;1.10;1.00;;;13.20;99.90;;;;;;5056582;28;20462;-70
2023/02/18 10:39:06;;;;;;;1.25;1.15;;;13.20;99.90;;;;;;5072930;28;20490;-70
2023/02/18 10:41:42;;;;;;;1.07;0.93;;;13.10;99.90;;;;;;5072169;28;20220;-70
2023/02/18 10:44:20;;;;;;;1.40;1.20;;;13.10;99.90;;;;;;5072831;28;20469;-70
2023/02/18 10:46:54;;;;;;;1.23;1.13;;;13.10;99.90;;;;;;5071926;28;20482;-70
2023/02/18 10:49:45;;;;;;;1.93;1.53;;;13.00;99.90;;;;;;5072223;28;20857;-70
2023/02/18 10:52:16;;;;;;;1.10;0.90;;;13.00;99.90;;;;;;5058087;28;20459;-70
2023/02/18 10:54:57;;;;;;;1.40;1.00;;;13.00;99.90;;;;;;5052618;28;20837;-70
2023/02/18 10:57:26;;;;;;;1.30;1.20;;;13.00;99.90;;;;;;5051464;28;20487;-70
2023/02/18 10:59:59;;;;;;;1.30;1.17;;;13.10;99.90;;;;;;5051535;28;20470;-70
2023/02/18 11:02:30;;;;;;;1.20;1.10;;;13.30;99.90;;;;;;5052093;28;20455;-70
2023/02/18 11:04:59;;;;;;;2.00;0.93;;;13.50;99.90;;;;;;5051442;28;20463;-70
2023/02/18 11:07:31;;;;;;;1.10;1.00;;;14.00;99.90;;;;;;5066119;28;20475;-70
2023/02/18 11:10:00;;;;;;;1.40;1.10;;;14.30;99.90;;;;;;5072168;28;20454;-69
2023/02/18 11:12:31;;;;;;;1.50;1.00;;;14.10;99.90;;;;;;5071699;28;20829;-69
2023/02/18 11:15:16;;;;;;;1.40;1.00;;;14.00;99.90;;;;;;5070887;28;20459;-69
2023/02/18 11:17:45;;;;;;;1.70;1.30;;;14.20;99.90;;;;;;5057164;28;21020;-69
2023/02/18 11:20:27;;;;;;;1.20;0.90;;;14.50;99.90;;;;;;5038887;28;20578;-69
2023/02/18 11:22:59;;;;;;;2.60;1.07;;;14.60;99.90;;;;;;5048736;28;20496;-69
2023/02/18 11:25:28;;;;;;;1.30;1.07;;;14.50;99.90;;;;;;5050329;28;20543;-69
2023/02/18 11:27:57;;;;;;;1.60;1.17;;;14.50;99.90;;;;;;5048691;28;20529;-69
2023/02/18 11:30:31;;;;;;;1.30;1.20;;;14.40;99.90;;;;;;5045564;28;20463;-69
2023/02/18 11:33:03;;;;;;;1.27;1.17;;;14.40;99.90;;;;;;5049758;28;20470;-69
2023/02/18 11:35:33;;;;;;;1.13;1.03;;;14.30;99.90;;;;;;5050143;28;20459;-69
2023/02/18 11:38:02;;;;;;;1.13;1.00;;;14.20;99.90;;;;;;5050381;28;20471;-70
2023/02/18 11:40:32;;;;;;;1.30;1.03;;;14.20;99.90;;;;;;5045970;28;20574;-71
2023/02/18 11:43:12;;;;;;;2.03;1.23;;;14.10;99.90;;;;;;5044906;28;20463;-71
2023/02/18 11:45:39;;;;;;;1.50;1.20;;;14.20;99.90;;;;;;5051642;28;20466;-70
2023/02/18 11:48:12;;;;;;;1.47;1.00;;;14.30;99.90;;;;;;5049749;28;20502;-70
2023/02/18 11:50:39;;;;;;;1.13;0.80;;;14.30;99.90;;;;;;5048687;28;20459;-70
2023/02/18 11:53:27;;;;;;;1.23;1.00;;;14.50;99.90;;;;;;5045813;28;20476;-70
2023/02/18 11:55:55;;;;;;;1.87;1.07;;;14.80;99.90;;;;;;5048775;28;20558;-70
2023/02/18 11:58:24;;;;;;;1.67;1.00;;;14.80;99.90;;;;;;5049328;28;20983;-70
2023/02/18 12:00:53;;;;;;;1.30;0.93;;;15.00;99.90;;;;;;5049020;28;20879;-70
2023/02/18 12:03:30;;;;;;;1.23;1.13;;;15.00;99.90;;;;;;5046397;28;21253;-70
2023/02/18 12:06:00;;;;;;;2.53;1.47;;;15.10;99.90;;;;;;5058404;28;20947;-70
2023/02/18 12:08:31;;;;;;;1.10;0.90;;;15.60;99.90;;;;;;5049447;28;20525;-70
2023/02/18 12:11:03;;;;;;;1.80;1.27;;;15.60;99.90;;;;;;5034007;28;20467;-70
2023/02/18 12:13:36;;;;;;;1.40;1.13;;;15.50;99.90;;;;;;5044318;28;20490;-69
2023/02/18 12:16:15;;;;;;;1.20;1.10;;;15.40;99.90;;;;;;5037856;28;20820;-69
2023/02/18 12:18:57;;;;;;;2.10;1.50;;;15.50;99.90;;;;;;5039967;28;20468;-69
2023/02/18 12:21:35;;;;;;;1.20;1.10;;;16.00;99.90;;;;;;5041475;28;20850;-71
2023/02/18 12:24:14;;;;;;;4.23;1.30;;;15.80;99.90;;;;;;5040684;28;20470;-70
2023/02/18 12:26:54;;;;;;;1.33;1.23;;;15.70;99.90;;;;;;5041643;28;20826;-70
2023/02/18 12:29:38;;;;;;;1.10;0.90;;;15.70;99.90;;;;;;5042216;28;20546;-70
2023/02/18 12:32:23;;;;;;;1.33;1.17;;;15.60;99.90;;;;;;5038615;28;20463;-70
2023/02/18 12:35:03;;;;;;;1.60;1.43;;;15.50;99.90;;;;;;5040786;28;20472;-71
2023/02/18 12:37:53;;;;;;;1.30;1.07;;;15.50;99.90;;;;;;5051816;28;21029;-70
2023/02/18 12:40:36;;;;;;;1.33;1.10;;;15.60;99.90;;;;;;5039224;28;20472;-70
2023/02/18 12:43:12;;;;;;;2.07;1.47;;;15.40;99.90;;;;;;5037949;28;20471;-70
2023/02/18 12:45:54;;;;;;;1.50;1.20;;;15.40;99.90;;;;;;5042825;28;20989;-69
2023/02/18 12:48:38;;;;;;;1.53;1.43;;;15.60;99.90;;;;;;5041101;28;20510;-69
2023/02/18 12:51:21;;;;;;;1.33;1.23;;;15.40;99.90;;;;;;5036331;28;20459;-71
2023/02/18 12:54:09;;;;;;;1.77;1.50;;;15.20;99.90;;;;;;5043496;28;20970;-70
2023/02/18 12:56:52;;;;;;;1.40;1.30;;;15.10;99.90;;;;;;5041044;28;20889;-71
2023/02/18 12:59:53;;;;;;;1.90;1.37;;;15.30;99.90;;;;;;5043627;28;21257;-71
2023/02/18 13:02:44;;;;;;;1.50;1.30;;;15.50;99.90;;;;;;5040190;28;21187;-70
2023/02/18 13:05:31;;;;;;;2.93;1.27;;;15.30;99.90;;;;;;5055357;28;20467;-70
2023/02/18 13:08:14;;;;;;;2.30;1.50;;;15.30;99.90;;;;;;5063276;28;20561;-70